Flight Track Log - Related Links

Times and Time Zones

All times are in EDT time to prevent confusion due to time zone crossing. See the GPD20 flight status page for this flight to view local times or setup timezone preferences in your user account.

Time Position Orientation Groundspeed Altitude Reporting Facility
EDT Latitude Longitude Course Direction KTS MPH feet Rate Location/Type
Mon 07:30:56 PM 41.3917 -70.9128 260° West 147 169 3,900  Level Boston Center
Mon 07:31:56 PM 41.3883 -70.9653 265° West 145 167 4,400 522 Climbing Boston Center
Mon 07:32:51 PM 41.3828 -71.0181 262° West 146 168 4,900 484 Climbing Boston Center
Mon 07:34:00 PM 41.3065 -70.9541 254° West  Level FlightAware Approximate
Mon 07:34:00 PM 41.3753 -71.0792 261° West 148 170 5,400  Level Boston Center
Mon 07:35:00 PM 41.2878 -71.0077 236° Southwest  Level FlightAware Approximate
Mon 07:35:00 PM 41.3694 -71.1317 262° West 149 171 5,800  Level Boston Center
Mon 07:36:01 PM 41.3639 -71.1900 263° West 155 178 6,400 362 Climbing Boston Center
Mon 07:36:56 PM 41.3583 -71.2425 262° West 160 184 6,500 52 Climbing Boston Center
Mon 07:37:57 PM 41.3506 -71.3036 260° West 175 201 6,500  Level Boston Center
Mon 07:38:57 PM 41.3386 -71.3675 256° West 172 198 6,500  Level Boston Center
Mon 07:39:57 PM 41.3331 -71.4311 263° West 173 199 6,500  Level Boston Center
Mon 07:40:58 PM 41.3294 -71.4947 266° West 174 200 6,500  Level Boston Center
Mon 07:42:04 PM 41.3217 -71.5694 262° West 175 201 6,500  Level Boston Center
Mon 07:43:10 PM 41.3117 -71.6386 259° West 174 200 6,500  Level Boston Center
Mon 07:44:13 PM 41.3081 -71.6994 266° West 173 199 6,500  Level Boston Center
Mon 07:45:13 PM 41.3022 -71.7631 263° West 175 201 6,500  Level Boston Center
Mon 07:46:14 PM 41.2964 -71.8350 264° West 178 205 6,500  Level Boston Center
Mon 07:47:14 PM 41.2861 -71.8958 257° West 176 203 6,500  Level Boston Center
Mon 07:48:15 PM 41.2803 -71.9594 263° West 176 203 6,500  Level Boston Center
Mon 07:50:15 PM 41.2667 -72.0833 262° West 175 201 6,500  Level New York TRACON
Mon 07:51:15 PM 41.2500 -72.1500 252° West 176 203 6,500  Level New York TRACON
Mon 07:52:15 PM 41.2500 -72.2167 270° West 175 201 6,500  Level New York TRACON
Mon 07:53:15 PM 41.2500 -72.2833 270° West 175 201 6,500  Level New York TRACON
Mon 07:54:15 PM 41.2333 -72.3500 252° West 175 201 6,500  Level New York TRACON
Mon 07:55:21 PM 41.2333 -72.4167 270° West 174 200 6,500  Level New York TRACON
Mon 07:56:15 PM 41.2167 -72.4667 246° West 175 201 6,500  Level New York TRACON
Mon 07:57:15 PM 41.2167 -72.5333 270° West 175 201 6,500  Level New York TRACON
Mon 07:58:15 PM 41.2167 -72.6000 270° West 176 203 6,500  Level New York TRACON
Mon 07:59:15 PM 41.2000 -72.6667 252° West 177 204 6,500  Level New York TRACON
Mon 08:00:15 PM 41.2000 -72.7167 270° West 175 201 6,500  Level New York TRACON
Mon 08:01:15 PM 41.1833 -72.7833 252° West 175 201 6,500 -143 Level New York TRACON
Mon 08:02:21 PM 41.1833 -72.8500 270° West 183 211 6,200 -350 Descending New York TRACON
Mon 08:03:15 PM 41.1667 -72.9167 252° West 188 216 5,800 -474 Descending New York TRACON
Mon 08:04:15 PM 41.1667 -72.9833 270° West 185 213 5,300 -476 Descending New York TRACON
Mon 08:05:21 PM 41.1500 -73.0500 252° West 182 209 4,800 -524 Descending New York TRACON
Mon 08:06:21 PM 41.1500 -73.1167 270° West 186 214 4,200 -526 Descending New York TRACON
Mon 08:07:15 PM 41.1333 -73.1833 252° West 181 208 3,800 -474 Descending New York TRACON
Mon 08:08:15 PM 41.1333 -73.2500 270° West 183 211 3,300 -550 Descending New York TRACON
Mon 08:09:15 PM 41.1167 -73.3167 252° West 183 211 2,700 -524 Descending New York TRACON
Mon 08:10:21 PM 41.1000 -73.3833 252° West 174 200 2,200 -400 Descending New York TRACON
Mon 08:11:15 PM 41.1000 -73.4333 270° West 165 190 1,900 -158 Descending New York TRACON
Mon 08:12:15 PM 41.0833 -73.5000 252° West 157 181 1,900  Level New York TRACON
Mon 08:13:21 PM 41.0833 -73.5500 270° West 156 180 1,900  Level New York TRACON
Mon 08:14:15 PM 41.0667 -73.6000 246° West 154 177 1,900  Level New York TRACON
Mon 08:15:15 PM 41.0667 -73.6667 270° West 155 178 1,900  Level New York TRACON
Mon 08:16:15 PM 41.1000 -73.6833 339° North 124 143 1,900 -95 Level New York TRACON
Mon 08:17:21 PM 41.1000 -73.6833 270° West 163 188 1,700 -400 Descending New York TRACON
Mon 08:18:15 PM 41.1000 -73.7167 270° West 92 106 1,100 -667 Descending New York TRACON
Mon 08:20:00 PM 41.0667 -73.7000 201° Southwest  Level FlightAware Approximate
Mon 08:27:00 PM 41.0669 -73.7076 201° Southwest  Level Estimated
Mon 08:28:00 PM 41.0667 -73.7000 201° Southwest  Level FlightAware Approximate
Mon 08:29:00 PM 41.0669 -73.7076 201° Southwest  Level Estimated

Login

Don't have an account? Register now (free) for customized features, flight alerts, and more!